createdAt,value
2023-01-17T00:00:14.228Z,6.16
2023-01-17T00:01:14.155Z,6.21
2023-01-17T00:02:14.168Z,6.14
2023-01-17T00:03:14.178Z,6.09
2023-01-17T00:04:14.148Z,6.16
2023-01-17T00:05:14.147Z,6.29
2023-01-17T00:06:14.139Z,6.18
2023-01-17T00:07:14.129Z,6.21
2023-01-17T00:08:14.133Z,6.11
2023-01-17T00:09:14.124Z,6.13
2023-01-17T00:10:14.114Z,6.09
2023-01-17T00:11:14.833Z,6.03
2023-01-17T00:12:14.099Z,6.07
2023-01-17T00:13:14.090Z,6.01
2023-01-17T00:14:14.092Z,6.04
2023-01-17T00:15:14.080Z,5.91
2023-01-17T00:16:14.119Z,6.07
2023-01-17T00:17:14.087Z,6.16
2023-01-17T00:18:14.060Z,6.26
2023-01-17T00:19:14.058Z,6.25
2023-01-17T00:20:14.052Z,6.19
2023-01-17T00:21:14.040Z,6.35
2023-01-17T00:22:14.056Z,6.13
2023-01-17T00:23:14.043Z,6.09
2023-01-17T00:24:14.099Z,6.10
2023-01-17T00:25:14.019Z,6.10
2023-01-17T00:26:14.024Z,6.26
2023-01-17T00:27:14.022Z,6.33
2023-01-17T00:28:14.004Z,6.30
2023-01-17T00:29:13.994Z,6.22
2023-01-17T00:30:13.985Z,6.07
2023-01-17T00:31:14.038Z,6.11
2023-01-17T00:32:13.975Z,6.21
2023-01-17T00:33:13.971Z,6.09
2023-01-17T00:34:13.956Z,6.06
2023-01-17T00:35:13.987Z,6.09
2023-01-17T00:36:13.949Z,6.09
2023-01-17T00:37:13.936Z,6.00
2023-01-17T00:38:13.975Z,6.07
2023-01-17T00:39:13.948Z,6.10
2023-01-17T00:40:13.916Z,6.09
2023-01-17T00:41:13.944Z,6.07
2023-01-17T00:42:13.925Z,6.14
2023-01-17T00:43:13.919Z,6.25
2023-01-17T00:44:13.909Z,6.14
2023-01-17T00:45:13.907Z,6.32
2023-01-17T00:46:13.899Z,6.13
2023-01-17T00:47:13.889Z,6.26
2023-01-17T00:48:13.890Z,6.13
2023-01-17T00:49:13.897Z,6.21
2023-01-17T00:50:13.867Z,6.18
2023-01-17T00:51:13.860Z,6.19
2023-01-17T00:52:13.861Z,6.29
2023-01-17T00:53:13.857Z,6.10
2023-01-17T00:54:13.857Z,6.14
2023-01-17T00:55:13.848Z,6.21
2023-01-17T00:56:13.861Z,6.30
2023-01-17T00:57:13.828Z,6.29
2023-01-17T00:58:13.820Z,6.36
2023-01-17T00:59:13.837Z,6.38
2023-01-17T01:00:13.814Z,6.29
2023-01-17T01:01:13.891Z,6.32
2023-01-17T01:02:13.832Z,6.29
2023-01-17T01:03:13.793Z,6.30
2023-01-17T01:04:13.783Z,6.28
2023-01-17T01:05:13.798Z,6.29
2023-01-17T01:06:13.766Z,6.18
2023-01-17T01:07:13.775Z,6.26
2023-01-17T01:08:13.780Z,6.32
2023-01-17T01:09:13.770Z,6.33
2023-01-17T01:10:13.745Z,6.35
2023-01-17T01:11:14.747Z,6.36
2023-01-17T01:12:13.731Z,6.28
2023-01-17T01:13:13.739Z,6.25
2023-01-17T01:14:13.769Z,6.41
2023-01-17T01:15:13.713Z,6.43
2023-01-17T01:16:13.752Z,6.36
2023-01-17T01:17:13.709Z,6.33
2023-01-17T01:18:13.697Z,6.32
2023-01-17T01:19:13.697Z,6.41
2023-01-17T01:20:13.705Z,6.32
2023-01-17T01:21:13.702Z,6.46
2023-01-17T01:22:13.694Z,6.41
2023-01-17T01:23:13.751Z,6.59
2023-01-17T01:24:13.667Z,6.48
2023-01-17T01:25:13.654Z,6.65
2023-01-17T01:26:13.657Z,6.54
2023-01-17T01:27:14.654Z,6.41
2023-01-17T01:28:13.639Z,6.40
2023-01-17T01:29:13.625Z,6.41
2023-01-17T01:30:13.628Z,6.47
2023-01-17T01:31:13.642Z,6.41
2023-01-17T01:32:13.637Z,6.43
2023-01-17T01:33:13.609Z,6.36
2023-01-17T01:34:13.599Z,6.51
2023-01-17T01:35:13.611Z,6.38
2023-01-17T01:36:13.588Z,6.56
2023-01-17T01:37:13.577Z,6.50
2023-01-17T01:38:13.616Z,6.28
2023-01-17T01:39:13.569Z,6.36
2023-01-17T01:40:13.553Z,6.36
2023-01-17T01:41:13.594Z,6.19
2023-01-17T01:42:13.555Z,6.22
2023-01-17T01:43:13.558Z,6.14
2023-01-17T01:44:13.593Z,6.06
2023-01-17T01:45:13.554Z,5.98
2023-01-17T01:46:13.548Z,6.13
2023-01-17T01:47:13.526Z,6.07
2023-01-17T01:48:13.537Z,6.01
2023-01-17T01:49:13.525Z,6.11
2023-01-17T01:50:13.534Z,5.88
2023-01-17T01:51:13.513Z,5.93
2023-01-17T01:52:13.506Z,6.06
2023-01-17T01:53:13.495Z,6.10
2023-01-17T01:54:13.501Z,6.22
2023-01-17T01:55:13.577Z,6.21
2023-01-17T01:56:13.493Z,6.10
2023-01-17T01:57:13.499Z,6.16
2023-01-17T01:58:13.498Z,6.21
2023-01-17T01:59:13.463Z,6.06
2023-01-17T02:00:13.617Z,6.18
2023-01-17T02:01:13.552Z,6.13
2023-01-17T02:02:13.424Z,6.10
2023-01-17T02:03:13.434Z,6.19
2023-01-17T02:04:13.470Z,6.07
2023-01-17T02:05:13.421Z,6.19
2023-01-17T02:06:13.428Z,6.28
2023-01-17T02:07:13.408Z,6.21
2023-01-17T02:08:13.402Z,6.11
2023-01-17T02:09:13.396Z,6.03
2023-01-17T02:10:13.386Z,6.07
2023-01-17T02:11:13.399Z,6.11
2023-01-17T02:12:13.405Z,6.14
2023-01-17T02:13:13.374Z,6.11
2023-01-17T02:14:13.357Z,6.13
2023-01-17T02:15:13.372Z,5.92
2023-01-17T02:16:13.439Z,5.89
2023-01-17T02:17:13.357Z,5.91
2023-01-17T02:18:13.353Z,6.01
2023-01-17T02:19:13.328Z,5.83
2023-01-17T02:20:13.321Z,5.89
2023-01-17T02:21:13.339Z,5.83
2023-01-17T02:22:13.354Z,5.93
2023-01-17T02:23:13.308Z,5.96
2023-01-17T02:24:13.320Z,5.85
2023-01-17T02:25:13.306Z,5.85
2023-01-17T02:26:13.292Z,5.86
2023-01-17T02:27:13.295Z,5.86
2023-01-17T02:28:13.287Z,5.91
2023-01-17T02:29:13.275Z,5.82
2023-01-17T02:30:13.267Z,5.77
2023-01-17T02:31:13.256Z,5.81
2023-01-17T02:32:13.851Z,5.85
2023-01-17T02:33:13.267Z,5.82
2023-01-17T02:34:13.248Z,5.89
2023-01-17T02:35:13.247Z,5.77
2023-01-17T02:36:13.227Z,5.74
2023-01-17T02:37:13.225Z,5.74
2023-01-17T02:38:13.243Z,5.82
2023-01-17T02:39:13.212Z,5.91
2023-01-17T02:40:13.215Z,5.95
2023-01-17T02:41:13.196Z,6.06
2023-01-17T02:42:13.183Z,5.96
2023-01-17T02:43:13.193Z,5.92
2023-01-17T02:44:13.181Z,6.01
2023-01-17T02:45:13.170Z,5.96
2023-01-17T02:46:13.254Z,5.96
2023-01-17T02:47:13.159Z,6.00
2023-01-17T02:48:13.171Z,5.77
2023-01-17T02:49:13.147Z,5.73
2023-01-17T02:50:13.139Z,5.70
2023-01-17T02:51:13.152Z,5.64
2023-01-17T02:52:13.151Z,5.71
2023-01-17T02:53:13.128Z,5.77
2023-01-17T02:54:13.126Z,5.73
2023-01-17T02:55:13.113Z,5.74
2023-01-17T02:56:13.131Z,5.81
2023-01-17T02:57:13.187Z,5.71
2023-01-17T02:58:13.121Z,5.81
2023-01-17T02:59:13.088Z,5.67
2023-01-17T03:00:13.075Z,5.85
2023-01-17T03:01:13.161Z,5.88
2023-01-17T03:02:13.143Z,5.86
2023-01-17T03:03:13.062Z,5.81
2023-01-17T03:04:13.093Z,5.93
2023-01-17T03:05:13.055Z,5.71
2023-01-17T03:06:13.060Z,5.77
2023-01-17T03:07:13.155Z,5.81
2023-01-17T03:08:13.051Z,5.71
2023-01-17T03:09:13.023Z,5.81
2023-01-17T03:10:13.034Z,5.91
2023-01-17T03:11:13.034Z,5.75
2023-01-17T03:12:13.007Z,5.81
2023-01-17T03:13:13.043Z,5.91
2023-01-17T03:14:12.991Z,5.88
2023-01-17T03:15:13.013Z,5.82
2023-01-17T03:16:13.022Z,5.83
2023-01-17T03:17:12.988Z,5.93
2023-01-17T03:18:12.962Z,5.86
2023-01-17T03:19:12.978Z,5.92
2023-01-17T03:20:12.983Z,5.86
2023-01-17T03:21:12.957Z,5.89
2023-01-17T03:22:12.964Z,5.92
2023-01-17T03:23:12.956Z,5.81
2023-01-17T03:24:12.949Z,5.81
2023-01-17T03:25:12.949Z,5.82
2023-01-17T03:26:12.919Z,5.93
2023-01-17T03:27:12.917Z,5.95
2023-01-17T03:28:12.933Z,5.89
2023-01-17T03:29:12.936Z,5.91
2023-01-17T03:30:12.896Z,5.92
2023-01-17T03:31:12.911Z,5.88
2023-01-17T03:32:12.881Z,5.92
2023-01-17T03:33:12.872Z,5.96
2023-01-17T03:34:12.900Z,5.88
2023-01-17T03:35:12.866Z,5.92
2023-01-17T03:36:13.832Z,5.88
2023-01-17T03:37:12.870Z,5.89
2023-01-17T03:38:12.874Z,5.88
2023-01-17T03:39:12.876Z,5.82
2023-01-17T03:40:12.845Z,5.89
2023-01-17T03:41:12.853Z,5.74
2023-01-17T03:42:12.845Z,5.92
2023-01-17T03:43:12.819Z,5.85
2023-01-17T03:44:12.815Z,5.82
2023-01-17T03:45:12.822Z,5.78
2023-01-17T03:46:12.856Z,5.74
2023-01-17T03:47:12.793Z,5.73
2023-01-17T03:48:12.811Z,5.88
2023-01-17T03:49:12.784Z,5.82
2023-01-17T03:50:12.774Z,5.78
2023-01-17T03:51:12.802Z,5.75
2023-01-17T03:52:12.760Z,5.74
2023-01-17T03:53:12.754Z,5.85
2023-01-17T03:54:12.773Z,5.88
2023-01-17T03:55:12.761Z,5.77
2023-01-17T03:56:12.743Z,5.71
2023-01-17T03:57:12.745Z,5.67
2023-01-17T03:58:12.739Z,5.59
2023-01-17T03:59:13.349Z,5.77
2023-01-17T04:00:13.722Z,5.77
2023-01-17T04:01:12.811Z,5.56
2023-01-17T04:02:12.848Z,5.67
2023-01-17T04:03:12.705Z,5.74
2023-01-17T04:04:12.700Z,5.77
2023-01-17T04:05:12.681Z,5.78
2023-01-17T04:06:12.703Z,5.71
2023-01-17T04:07:12.677Z,5.74
2023-01-17T04:08:12.667Z,5.85
2023-01-17T04:09:12.670Z,5.77
2023-01-17T04:10:12.696Z,5.71
2023-01-17T04:11:12.658Z,5.68
2023-01-17T04:12:12.655Z,5.70
2023-01-17T04:13:12.643Z,5.64
2023-01-17T04:14:12.633Z,5.67
2023-01-17T04:15:12.644Z,5.57
2023-01-17T04:16:12.653Z,5.66
2023-01-17T04:17:12.635Z,5.66
2023-01-17T04:18:12.628Z,5.60
2023-01-17T04:19:12.605Z,5.68
2023-01-17T04:20:12.607Z,5.86
2023-01-17T04:21:12.628Z,5.86
2023-01-17T04:22:12.637Z,5.73
2023-01-17T04:23:12.593Z,5.59
2023-01-17T04:24:12.588Z,5.56
2023-01-17T04:25:12.620Z,5.68
2023-01-17T04:26:12.599Z,5.71
2023-01-17T04:27:12.566Z,5.63
2023-01-17T04:28:12.599Z,5.60
2023-01-17T04:29:12.544Z,5.63
2023-01-17T04:30:12.601Z,5.60
2023-01-17T04:31:12.649Z,5.67
2023-01-17T04:32:12.533Z,5.49
2023-01-17T04:33:12.540Z,5.52
2023-01-17T04:34:12.526Z,5.53
2023-01-17T04:35:12.508Z,5.53
2023-01-17T04:36:12.502Z,5.56
2023-01-17T04:37:12.517Z,5.53
2023-01-17T04:38:12.504Z,5.57
2023-01-17T04:39:12.500Z,5.56
2023-01-17T04:40:12.481Z,5.49
2023-01-17T04:41:12.482Z,5.45
2023-01-17T04:42:12.456Z,5.63
2023-01-17T04:43:12.491Z,5.55
2023-01-17T04:44:12.486Z,5.45
2023-01-17T04:45:12.460Z,5.43
2023-01-17T04:46:12.560Z,5.38
2023-01-17T04:47:12.485Z,5.48
2023-01-17T04:48:12.444Z,5.50
2023-01-17T04:49:12.448Z,5.35
2023-01-17T04:50:12.418Z,5.43
2023-01-17T04:51:12.439Z,5.34
2023-01-17T04:52:12.394Z,5.45
2023-01-17T04:53:12.402Z,5.34
2023-01-17T04:54:12.418Z,5.30
2023-01-17T04:55:12.414Z,5.31
2023-01-17T04:56:12.384Z,5.31
2023-01-17T04:57:12.468Z,5.45
2023-01-17T04:58:12.364Z,5.50
2023-01-17T04:59:12.368Z,5.35
2023-01-17T05:00:12.379Z,5.56
2023-01-17T05:01:12.419Z,5.52
2023-01-17T05:02:12.366Z,5.48
2023-01-17T05:03:12.340Z,5.32
2023-01-17T05:04:12.332Z,5.32
2023-01-17T05:05:12.324Z,5.40
2023-01-17T05:06:12.357Z,5.20
2023-01-17T05:07:12.308Z,5.19
2023-01-17T05:08:12.299Z,5.30
2023-01-17T05:09:12.316Z,5.25
2023-01-17T05:10:12.280Z,5.16
2023-01-17T05:11:12.284Z,5.05
2023-01-17T05:12:12.287Z,5.22
2023-01-17T05:13:12.277Z,5.32
2023-01-17T05:14:12.275Z,5.30
2023-01-17T05:15:12.269Z,5.23
2023-01-17T05:16:12.264Z,5.14
2023-01-17T05:17:12.256Z,5.19
2023-01-17T05:18:12.259Z,5.31
2023-01-17T05:19:13.266Z,5.28
2023-01-17T05:20:12.240Z,5.27
2023-01-17T05:21:12.236Z,5.35
2023-01-17T05:22:12.224Z,5.16
2023-01-17T05:23:12.235Z,5.17
2023-01-17T05:24:12.209Z,5.13
2023-01-17T05:25:12.227Z,4.89
2023-01-17T05:26:12.191Z,4.89
2023-01-17T05:27:12.200Z,4.75
2023-01-17T05:28:12.212Z,4.88
2023-01-17T05:29:12.212Z,4.67
2023-01-17T05:30:12.163Z,4.61
2023-01-17T05:31:13.269Z,4.72
2023-01-17T05:32:12.157Z,4.65
2023-01-17T05:33:12.188Z,4.79
2023-01-17T05:34:12.151Z,4.75
2023-01-17T05:35:12.145Z,4.75
2023-01-17T05:36:12.171Z,4.80
2023-01-17T05:37:12.143Z,4.89
2023-01-17T05:38:12.170Z,4.77
2023-01-17T05:39:12.159Z,4.84
2023-01-17T05:40:12.123Z,4.80
2023-01-17T05:41:12.128Z,4.70
2023-01-17T05:42:12.137Z,4.83
2023-01-17T05:43:12.101Z,4.79
2023-01-17T05:44:12.116Z,4.55
2023-01-17T05:45:12.104Z,4.69
2023-01-17T05:46:12.131Z,4.70
2023-01-17T05:47:12.076Z,4.67
2023-01-17T05:48:12.149Z,4.70
2023-01-17T05:49:12.096Z,4.67
2023-01-17T05:50:12.060Z,4.62
2023-01-17T05:51:12.096Z,4.54
2023-01-17T05:52:12.062Z,4.65
2023-01-17T05:53:12.067Z,4.65
2023-01-17T05:54:12.028Z,4.76
2023-01-17T05:55:13.051Z,4.72
2023-01-17T05:56:12.040Z,4.77
2023-01-17T05:57:12.057Z,4.80
2023-01-17T05:58:12.013Z,4.89
2023-01-17T05:59:14.093Z,4.83
2023-01-17T06:00:13.074Z,4.95
2023-01-17T06:01:12.039Z,4.94
2023-01-17T06:02:11.989Z,4.75
2023-01-17T06:03:11.978Z,4.77
2023-01-17T06:04:12.073Z,4.70
2023-01-17T06:05:12.878Z,4.91
2023-01-17T06:06:12.733Z,4.86
2023-01-17T06:07:11.983Z,5.01
2023-01-17T06:08:12.010Z,4.80
2023-01-17T06:09:11.947Z,4.91
2023-01-17T06:10:11.935Z,4.94
2023-01-17T06:11:11.963Z,4.77
2023-01-17T06:12:11.929Z,4.79
2023-01-17T06:13:11.915Z,4.75
2023-01-17T06:14:11.932Z,4.84
2023-01-17T06:15:11.909Z,4.98
2023-01-17T06:16:11.968Z,5.05
2023-01-17T06:17:11.901Z,4.96
2023-01-17T06:18:11.889Z,4.95
2023-01-17T06:19:11.900Z,4.98
2023-01-17T06:20:11.888Z,4.88
2023-01-17T06:21:11.877Z,4.86
2023-01-17T06:22:11.870Z,4.80
2023-01-17T06:23:11.875Z,4.72
2023-01-17T06:24:11.868Z,4.69
2023-01-17T06:25:11.861Z,4.59
2023-01-17T06:26:11.851Z,4.73
2023-01-17T06:27:11.838Z,4.70
2023-01-17T06:28:11.852Z,4.64
2023-01-17T06:29:11.832Z,4.73
2023-01-17T06:30:11.868Z,4.75
2023-01-17T06:31:11.837Z,4.58
2023-01-17T06:32:11.806Z,4.61
2023-01-17T06:33:11.810Z,4.73
2023-01-17T06:34:11.788Z,4.95
2023-01-17T06:35:11.794Z,4.88
2023-01-17T06:36:11.808Z,4.92
2023-01-17T06:37:11.770Z,4.72
2023-01-17T06:38:11.781Z,4.83
2023-01-17T06:39:14.791Z,4.76
2023-01-17T06:40:11.758Z,4.98
2023-01-17T06:41:11.758Z,5.01
2023-01-17T06:42:11.761Z,4.84
2023-01-17T06:43:11.738Z,4.80
2023-01-17T06:44:11.743Z,4.75
2023-01-17T06:45:11.742Z,4.79
2023-01-17T06:46:11.769Z,4.86
2023-01-17T06:47:11.728Z,4.80
2023-01-17T06:48:11.747Z,4.95
2023-01-17T06:49:11.715Z,4.95
2023-01-17T06:50:11.700Z,5.01
2023-01-17T06:51:11.726Z,5.01
2023-01-17T06:52:11.702Z,4.89
2023-01-17T06:53:11.688Z,5.02
2023-01-17T06:54:11.689Z,5.07
2023-01-17T06:55:11.682Z,5.04
2023-01-17T06:56:11.686Z,5.10
2023-01-17T06:57:11.665Z,5.13
2023-01-17T06:58:11.715Z,5.05
2023-01-17T06:59:11.680Z,5.04
2023-01-17T07:00:11.652Z,4.99
2023-01-17T07:01:11.759Z,4.89
2023-01-17T07:02:11.625Z,4.80
2023-01-17T07:03:11.659Z,4.91
2023-01-17T07:04:11.652Z,4.91
2023-01-17T07:05:11.623Z,4.92
2023-01-17T07:06:11.608Z,4.70
2023-01-17T07:07:11.604Z,5.10
2023-01-17T07:08:11.790Z,5.07
2023-01-17T07:09:11.595Z,4.99
2023-01-17T07:10:11.580Z,5.01
2023-01-17T07:11:11.582Z,5.12
2023-01-17T07:12:11.584Z,5.10
2023-01-17T07:13:11.570Z,5.25
2023-01-17T07:14:11.552Z,5.23
2023-01-17T07:15:11.557Z,5.22
2023-01-17T07:16:11.618Z,5.27
2023-01-17T07:17:11.534Z,5.07
2023-01-17T07:18:11.550Z,4.95
2023-01-17T07:19:11.548Z,5.14
2023-01-17T07:20:11.531Z,5.23
2023-01-17T07:21:11.513Z,5.22
2023-01-17T07:22:11.521Z,5.25
2023-01-17T07:23:11.502Z,5.14
2023-01-17T07:24:11.501Z,5.05
2023-01-17T07:25:11.503Z,4.92
2023-01-17T07:26:11.491Z,4.80
2023-01-17T07:27:11.473Z,4.98
2023-01-17T07:28:18.218Z,4.89
2023-01-17T07:29:11.456Z,5.05
2023-01-17T07:30:11.458Z,5.10
2023-01-17T07:31:11.553Z,5.19
2023-01-17T07:32:11.447Z,5.22
2023-01-17T07:33:11.445Z,5.23
2023-01-17T07:34:11.454Z,5.31
2023-01-17T07:35:11.461Z,5.27
2023-01-17T07:36:11.419Z,5.27
2023-01-17T07:37:13.617Z,5.35
2023-01-17T07:38:11.428Z,5.37
2023-01-17T07:39:11.397Z,5.46
2023-01-17T07:40:11.424Z,5.32
2023-01-17T07:41:11.381Z,5.41
2023-01-17T07:42:11.408Z,5.23
2023-01-17T07:43:11.393Z,5.12
2023-01-17T07:44:11.377Z,5.32
2023-01-17T07:45:11.376Z,5.34
2023-01-17T07:46:11.418Z,5.31
2023-01-17T07:47:11.379Z,5.27
2023-01-17T07:48:11.367Z,5.32
2023-01-17T07:49:11.353Z,5.31
2023-01-17T07:50:11.338Z,5.35
2023-01-17T07:51:11.383Z,5.23
2023-01-17T07:52:11.411Z,4.99
2023-01-17T07:53:11.320Z,5.12
2023-01-17T07:54:11.322Z,5.23
2023-01-17T07:55:11.312Z,5.25
2023-01-17T07:56:11.308Z,5.28
2023-01-17T07:57:11.343Z,5.05
2023-01-17T07:58:11.314Z,5.14
2023-01-17T07:59:11.329Z,5.10
2023-01-17T08:00:11.293Z,5.14
2023-01-17T08:01:11.346Z,5.09
2023-01-17T08:02:11.273Z,5.28
2023-01-17T08:03:11.272Z,5.32
2023-01-17T08:04:11.336Z,5.27
2023-01-17T08:05:11.239Z,5.16
2023-01-17T08:06:11.236Z,5.04
2023-01-17T08:07:11.254Z,5.14
2023-01-17T08:08:11.258Z,5.31
2023-01-17T08:09:11.220Z,5.49
2023-01-17T08:10:11.221Z,5.41
2023-01-17T08:11:11.198Z,5.22
2023-01-17T08:12:11.217Z,5.23
2023-01-17T08:13:11.198Z,5.48
2023-01-17T08:14:11.186Z,5.59
2023-01-17T08:15:11.205Z,5.86
2023-01-17T08:16:11.230Z,5.92
2023-01-17T08:17:11.169Z,6.00
2023-01-17T08:18:11.173Z,5.96
2023-01-17T08:19:11.178Z,5.88
2023-01-17T08:20:11.162Z,6.26
2023-01-17T08:21:11.144Z,6.33
2023-01-17T08:22:11.136Z,6.50
2023-01-17T08:23:11.134Z,6.47
2023-01-17T08:24:11.123Z,6.68
2023-01-17T08:25:12.119Z,7.01
2023-01-17T08:26:11.128Z,7.99
2023-01-17T08:27:11.108Z,9.13
2023-01-17T08:28:11.158Z,9.40
2023-01-17T08:29:11.124Z,9.12
2023-01-17T08:30:11.125Z,9.04
2023-01-17T08:31:11.180Z,9.43
2023-01-17T08:32:11.091Z,9.82
2023-01-17T08:33:11.080Z,9.93
2023-01-17T08:34:11.070Z,9.75
2023-01-17T08:35:11.116Z,10.09
2023-01-17T08:36:11.068Z,10.01
2023-01-17T08:37:11.044Z,8.90
2023-01-17T08:38:11.050Z,8.21
2023-01-17T08:39:11.066Z,7.44
2023-01-17T08:40:11.055Z,6.80
2023-01-17T08:41:11.017Z,6.58
2023-01-17T08:42:11.058Z,6.53
2023-01-17T08:43:11.006Z,6.44
2023-01-17T08:44:11.004Z,6.25
2023-01-17T08:45:11.013Z,6.06
2023-01-17T08:46:11.059Z,5.70
2023-01-17T08:47:11.020Z,5.67
2023-01-17T08:48:10.991Z,5.53
2023-01-17T08:49:10.982Z,5.57
2023-01-17T08:50:10.983Z,5.60
2023-01-17T08:51:10.993Z,5.68
2023-01-17T08:52:10.958Z,5.63
2023-01-17T08:53:10.983Z,5.63
2023-01-17T08:54:10.962Z,5.85
2023-01-17T08:55:10.948Z,6.00
2023-01-17T08:56:10.932Z,6.06
2023-01-17T08:57:10.962Z,5.75
2023-01-17T08:58:10.917Z,5.67
2023-01-17T08:59:10.917Z,5.45
2023-01-17T09:00:10.922Z,5.43
2023-01-17T09:01:11.013Z,5.31
2023-01-17T09:02:10.959Z,5.31
2023-01-17T09:03:10.914Z,5.45
2023-01-17T09:04:10.912Z,5.50
2023-01-17T09:05:10.882Z,5.56
2023-01-17T09:06:10.898Z,5.48
2023-01-17T09:07:10.861Z,5.45
2023-01-17T09:08:10.892Z,5.49
2023-01-17T09:09:10.865Z,5.48
2023-01-17T09:10:10.871Z,5.28
2023-01-17T09:11:10.844Z,5.16
2023-01-17T09:12:10.839Z,5.19
2023-01-17T09:13:10.861Z,5.34
2023-01-17T09:14:10.846Z,5.34
2023-01-17T09:15:10.828Z,5.19
2023-01-17T09:16:10.885Z,5.25
2023-01-17T09:17:10.815Z,5.19
2023-01-17T09:18:10.799Z,5.30
2023-01-17T09:19:10.835Z,5.14
2023-01-17T09:20:10.807Z,5.13
2023-01-17T09:21:10.828Z,5.13
2023-01-17T09:22:10.802Z,4.99
2023-01-17T09:23:10.774Z,5.16
2023-01-17T09:24:10.808Z,5.09
2023-01-17T09:25:10.783Z,5.17
2023-01-17T09:26:10.788Z,5.28
2023-01-17T09:27:10.747Z,5.07
2023-01-17T09:28:10.781Z,4.96
2023-01-17T09:29:10.769Z,4.76
2023-01-17T09:30:10.743Z,4.77
2023-01-17T09:31:10.806Z,4.92
2023-01-17T09:32:10.751Z,4.83
2023-01-17T09:33:10.735Z,5.16
2023-01-17T09:34:10.716Z,5.17
2023-01-17T09:35:10.714Z,5.27
2023-01-17T09:36:10.710Z,5.28
2023-01-17T09:37:10.685Z,5.32
2023-01-17T09:38:10.705Z,5.46
2023-01-17T09:39:10.698Z,5.30
2023-01-17T09:40:10.695Z,5.46
2023-01-17T09:41:10.685Z,5.27
2023-01-17T09:42:10.703Z,5.67
2023-01-17T09:43:10.650Z,6.30
2023-01-17T09:44:11.672Z,6.77
2023-01-17T09:45:10.655Z,7.29
2023-01-17T09:46:10.654Z,7.37
2023-01-17T09:47:10.685Z,7.40
2023-01-17T09:48:10.650Z,7.67
2023-01-17T09:49:10.649Z,7.77
2023-01-17T09:50:10.633Z,8.36
2023-01-17T09:51:10.668Z,8.08
2023-01-17T09:52:10.625Z,7.71
2023-01-17T09:53:10.599Z,7.32
2023-01-17T09:54:10.604Z,7.09
2023-01-17T09:55:10.606Z,6.65
2023-01-17T09:56:10.584Z,6.28
2023-01-17T09:57:10.591Z,6.73
2023-01-17T09:58:10.628Z,7.67
2023-01-17T09:59:10.592Z,8.72
2023-01-17T10:00:10.568Z,9.68
2023-01-17T10:01:10.655Z,10.47
2023-01-17T10:02:11.904Z,10.15
2023-01-17T10:03:10.700Z,9.18
2023-01-17T10:04:10.629Z,8.21
2023-01-17T10:05:10.621Z,7.85
2023-01-17T10:06:10.546Z,7.66
2023-01-17T10:07:10.537Z,7.40
2023-01-17T10:08:10.523Z,7.27
2023-01-17T10:09:10.546Z,7.23
2023-01-17T10:10:10.530Z,7.50
2023-01-17T10:11:10.529Z,8.25
2023-01-17T10:12:10.503Z,9.60
2023-01-17T10:13:10.487Z,10.78
2023-01-17T10:14:10.499Z,11.36
2023-01-17T10:15:10.490Z,10.88
2023-01-17T10:16:10.461Z,11.13
2023-01-17T10:17:10.474Z,11.61
2023-01-17T10:18:19.094Z,11.01
2023-01-17T10:19:12.484Z,9.99
2023-01-17T10:20:10.459Z,10.80
2023-01-17T10:21:10.454Z,10.19
2023-01-17T10:22:10.428Z,9.16
2023-01-17T10:23:10.415Z,9.18
2023-01-17T10:24:11.446Z,9.49
2023-01-17T10:25:10.425Z,10.88
2023-01-17T10:26:10.409Z,11.06
2023-01-17T10:27:10.464Z,10.84
2023-01-17T10:28:10.392Z,11.94
2023-01-17T10:29:10.383Z,12.24
2023-01-17T10:30:10.423Z,12.48
2023-01-17T10:31:10.430Z,13.17
2023-01-17T10:32:10.364Z,13.76
2023-01-17T10:33:10.369Z,13.20
2023-01-17T10:34:10.355Z,12.44
2023-01-17T10:35:10.376Z,11.89
2023-01-17T10:36:10.353Z,10.24
2023-01-17T10:37:10.406Z,9.39
2023-01-17T10:38:10.330Z,8.99
2023-01-17T10:39:10.310Z,8.73
2023-01-17T10:40:10.319Z,8.81
2023-01-17T10:41:10.313Z,8.76
2023-01-17T10:42:10.308Z,8.87
2023-01-17T10:43:10.307Z,8.76
2023-01-17T10:44:10.284Z,8.86
2023-01-17T10:45:10.295Z,8.53
2023-01-17T10:46:10.324Z,8.29
2023-01-17T10:47:10.269Z,8.14
2023-01-17T10:48:10.254Z,7.47
2023-01-17T10:49:10.282Z,7.41
2023-01-17T10:50:10.241Z,7.31
2023-01-17T10:51:10.262Z,7.44
2023-01-17T10:52:10.236Z,7.35
2023-01-17T10:53:10.287Z,7.50
2023-01-17T10:54:10.277Z,7.81
2023-01-17T10:55:10.204Z,8.21
2023-01-17T10:56:10.200Z,8.36
2023-01-17T10:57:10.274Z,8.79
2023-01-17T10:58:10.202Z,9.78
2023-01-17T10:59:10.181Z,10.92
2023-01-17T11:00:10.192Z,11.71
2023-01-17T11:01:10.258Z,12.59
2023-01-17T11:02:10.261Z,12.92
2023-01-17T11:03:10.183Z,13.07
2023-01-17T11:04:10.168Z,12.85
2023-01-17T11:05:10.837Z,12.21
2023-01-17T11:06:10.220Z,12.19
2023-01-17T11:07:10.161Z,12.41
2023-01-17T11:08:10.158Z,11.82
2023-01-17T11:09:10.107Z,12.41
2023-01-17T11:10:10.119Z,12.57
2023-01-17T11:11:10.107Z,12.71
2023-01-17T11:12:10.102Z,12.59
2023-01-17T11:13:10.131Z,12.82
2023-01-17T11:14:10.091Z,13.27
2023-01-17T11:15:10.071Z,13.95
2023-01-17T11:16:11.137Z,13.91
2023-01-17T11:17:10.078Z,13.88
2023-01-17T11:18:10.073Z,13.87
2023-01-17T11:19:10.090Z,13.84
2023-01-17T11:20:10.148Z,14.67
2023-01-17T11:21:10.049Z,14.68
2023-01-17T11:22:10.045Z,14.25
2023-01-17T11:23:10.029Z,14.12
2023-01-17T11:24:10.054Z,13.96
2023-01-17T11:25:10.785Z,13.52
2023-01-17T11:26:10.009Z,13.95
2023-01-17T11:27:09.994Z,15.13
2023-01-17T11:28:10.127Z,15.64
2023-01-17T11:29:10.010Z,15.43
2023-01-17T11:30:09.979Z,15.19
2023-01-17T11:31:10.020Z,13.70
2023-01-17T11:32:09.960Z,11.71
2023-01-17T11:33:09.994Z,11.19
2023-01-17T11:34:09.955Z,11.61
2023-01-17T11:35:09.959Z,10.22
2023-01-17T11:36:09.951Z,9.40
2023-01-17T11:37:09.949Z,8.71
2023-01-17T11:38:09.959Z,8.84
2023-01-17T11:39:09.917Z,8.17
2023-01-17T11:40:09.909Z,7.99
2023-01-17T11:41:09.966Z,7.92
2023-01-17T11:42:09.903Z,7.74
2023-01-17T11:43:09.912Z,7.40
2023-01-17T11:44:09.935Z,6.98
2023-01-17T11:45:09.886Z,6.98
2023-01-17T11:46:09.945Z,6.94
2023-01-17T11:47:09.908Z,6.89
2023-01-17T11:48:09.891Z,6.76
2023-01-17T11:49:09.853Z,6.69
2023-01-17T11:50:09.850Z,6.54
2023-01-17T11:51:09.860Z,6.90
2023-01-17T11:52:09.860Z,7.07
2023-01-17T11:53:09.839Z,6.86
2023-01-17T11:54:09.834Z,7.05
2023-01-17T11:55:09.846Z,7.29
2023-01-17T11:56:09.827Z,7.42
2023-01-17T11:57:09.807Z,7.38
2023-01-17T11:58:09.812Z,7.67
2023-01-17T11:59:09.830Z,7.93
2023-01-17T12:00:09.781Z,8.02
2023-01-17T12:01:09.917Z,7.87
2023-01-17T12:02:09.808Z,7.94
2023-01-17T12:03:09.783Z,8.10
2023-01-17T12:04:09.801Z,8.25
2023-01-17T12:05:09.805Z,7.99
2023-01-17T12:06:09.794Z,7.71
2023-01-17T12:07:09.735Z,7.72
2023-01-17T12:08:09.728Z,7.53
2023-01-17T12:09:09.764Z,7.19
2023-01-17T12:10:09.750Z,6.79
2023-01-17T12:11:09.730Z,6.56
2023-01-17T12:12:09.744Z,6.38
2023-01-17T12:13:09.710Z,6.54
2023-01-17T12:14:09.700Z,6.51
2023-01-17T12:15:09.723Z,6.41
2023-01-17T12:16:09.701Z,6.62
2023-01-17T12:17:09.732Z,6.72
2023-01-17T12:18:09.716Z,6.89
2023-01-17T12:19:09.682Z,6.76
2023-01-17T12:20:09.660Z,6.79
2023-01-17T12:21:09.696Z,6.62
2023-01-17T12:22:09.703Z,6.83
2023-01-17T12:23:09.661Z,6.89
2023-01-17T12:24:09.670Z,6.97
2023-01-17T12:25:09.643Z,6.63
2023-01-17T12:26:09.638Z,6.71
2023-01-17T12:27:09.649Z,6.58
2023-01-17T12:28:09.620Z,6.80
2023-01-17T12:29:09.630Z,6.86
2023-01-17T12:30:09.626Z,6.76
2023-01-17T12:31:09.638Z,6.66
2023-01-17T12:32:09.617Z,6.62
2023-01-17T12:33:09.609Z,6.62
2023-01-17T12:34:09.593Z,6.81
2023-01-17T12:35:09.591Z,6.83
2023-01-17T12:36:09.599Z,6.68
2023-01-17T12:37:09.632Z,6.54
2023-01-17T12:38:10.535Z,6.50
2023-01-17T12:39:09.577Z,6.26
2023-01-17T12:40:09.576Z,6.54
2023-01-17T12:41:09.544Z,6.71
2023-01-17T12:42:09.539Z,6.54
2023-01-17T12:43:09.583Z,6.53
2023-01-17T12:44:09.525Z,6.44
2023-01-17T12:45:09.548Z,6.66
2023-01-17T12:46:09.543Z,6.63
2023-01-17T12:47:09.652Z,6.80
2023-01-17T12:48:09.510Z,6.76
2023-01-17T12:49:09.523Z,6.95
2023-01-17T12:50:09.541Z,6.77
2023-01-17T12:51:09.514Z,6.83
2023-01-17T12:52:09.531Z,6.90
2023-01-17T12:53:09.513Z,6.81
2023-01-17T12:54:09.488Z,6.89
2023-01-17T12:55:09.479Z,6.86
2023-01-17T12:56:09.479Z,6.76
2023-01-17T12:57:09.465Z,6.63
2023-01-17T12:58:09.466Z,6.48
2023-01-17T12:59:09.544Z,6.66
2023-01-17T13:00:09.492Z,6.54
2023-01-17T13:01:09.569Z,6.84
2023-01-17T13:02:09.529Z,7.02
2023-01-17T13:03:09.429Z,7.01
2023-01-17T13:04:09.444Z,7.07
2023-01-17T13:05:10.276Z,7.07
2023-01-17T13:06:09.409Z,6.94
2023-01-17T13:07:09.401Z,6.65
2023-01-17T13:08:09.382Z,6.44
2023-01-17T13:09:09.408Z,6.40
2023-01-17T13:10:09.389Z,6.32
2023-01-17T13:11:09.373Z,6.40
2023-01-17T13:12:09.371Z,6.44
2023-01-17T13:13:09.405Z,6.72
2023-01-17T13:14:09.372Z,6.94
2023-01-17T13:15:09.341Z,7.13
2023-01-17T13:16:09.519Z,7.07